sensor_id;sensor_type;location;lat;lon;timestamp;temperature;humidity
22676;DHT22;12521;43.310;21.876;2023-12-22T00:00:09;2.9;96.0
22676;DHT22;12521;43.310;21.876;2023-12-22T00:04:46;2.9;96.0
22676;DHT22;12521;43.310;21.876;2023-12-22T00:09:23;2.9;96.0
22676;DHT22;12521;43.310;21.876;2023-12-22T00:13:59;3.0;96.0
22676;DHT22;12521;43.310;21.876;2023-12-22T00:18:37;3.0;96.0
22676;DHT22;12521;43.310;21.876;2023-12-22T00:23:13;3.0;96.0
22676;DHT22;12521;43.310;21.876;2023-12-22T00:27:49;3.0;96.0
22676;DHT22;12521;43.310;21.876;2023-12-22T00:32:26;3.0;96.0
22676;DHT22;12521;43.310;21.876;2023-12-22T00:37:02;3.0;96.0
22676;DHT22;12521;43.310;21.876;2023-12-22T00:41:39;3.0;96.0
22676;DHT22;12521;43.310;21.876;2023-12-22T00:46:15;2.9;96.0
22676;DHT22;12521;43.310;21.876;2023-12-22T00:50:51;2.9;96.0
22676;DHT22;12521;43.310;21.876;2023-12-22T00:55:27;3.0;96.0
22676;DHT22;12521;43.310;21.876;2023-12-22T01:00:09;3.0;96.0
22676;DHT22;12521;43.310;21.876;2023-12-22T01:04:45;3.0;96.0
22676;DHT22;12521;43.310;21.876;2023-12-22T01:09:21;3.0;96.0
22676;DHT22;12521;43.310;21.876;2023-12-22T01:13:58;3.1;96.0
22676;DHT22;12521;43.310;21.876;2023-12-22T01:18:34;3.1;96.0
22676;DHT22;12521;43.310;21.876;2023-12-22T01:23:10;3.2;96.0
22676;DHT22;12521;43.310;21.876;2023-12-22T01:27:47;3.2;96.0
22676;DHT22;12521;43.310;21.876;2023-12-22T01:32:23;3.2;96.0
22676;DHT22;12521;43.310;21.876;2023-12-22T01:36:59;3.2;96.0
22676;DHT22;12521;43.310;21.876;2023-12-22T01:41:36;3.2;96.0
22676;DHT22;12521;43.310;21.876;2023-12-22T01:46:13;3.3;96.0
22676;DHT22;12521;43.310;21.876;2023-12-22T01:50:53;3.3;96.0
22676;DHT22;12521;43.310;21.876;2023-12-22T01:55:33;3.4;96.0
22676;DHT22;12521;43.310;21.876;2023-12-22T02:00:14;3.4;96.0
22676;DHT22;12521;43.310;21.876;2023-12-22T02:04:53;3.4;96.0
22676;DHT22;12521;43.310;21.876;2023-12-22T02:09:29;3.4;96.0
22676;DHT22;12521;43.310;21.876;2023-12-22T02:14:07;3.4;96.0
22676;DHT22;12521;43.310;21.876;2023-12-22T02:18:56;3.4;96.0
22676;DHT22;12521;43.310;21.876;2023-12-22T02:23:33;3.5;96.0
22676;DHT22;12521;43.310;21.876;2023-12-22T02:28:21;3.5;96.0
22676;DHT22;12521;43.310;21.876;2023-12-22T02:33:07;3.5;96.0
22676;DHT22;12521;43.310;21.876;2023-12-22T02:37:50;3.5;96.0
22676;DHT22;12521;43.310;21.876;2023-12-22T02:42:32;3.5;96.0
22676;DHT22;12521;43.310;21.876;2023-12-22T02:47:10;3.5;96.0
22676;DHT22;12521;43.310;21.876;2023-12-22T02:51:46;3.5;96.0
22676;DHT22;12521;43.310;21.876;2023-12-22T02:56:22;3.5;96.0
22676;DHT22;12521;43.310;21.876;2023-12-22T03:00:59;3.5;96.0
22676;DHT22;12521;43.310;21.876;2023-12-22T03:05:35;3.5;96.0
22676;DHT22;12521;43.310;21.876;2023-12-22T03:10:11;3.5;96.0
22676;DHT22;12521;43.310;21.876;2023-12-22T03:14:48;3.6;96.0
22676;DHT22;12521;43.310;21.876;2023-12-22T03:19:24;3.6;96.0
22676;DHT22;12521;43.310;21.876;2023-12-22T03:24:01;3.6;96.0
22676;DHT22;12521;43.310;21.876;2023-12-22T03:28:38;3.6;96.0
22676;DHT22;12521;43.310;21.876;2023-12-22T03:33:14;3.6;96.0
22676;DHT22;12521;43.310;21.876;2023-12-22T03:37:50;3.6;96.0
22676;DHT22;12521;43.310;21.876;2023-12-22T03:42:26;3.6;96.0
22676;DHT22;12521;43.310;21.876;2023-12-22T03:47:03;3.7;96.0
22676;DHT22;12521;43.310;21.876;2023-12-22T03:51:39;3.7;96.0
22676;DHT22;12521;43.310;21.876;2023-12-22T03:56:15;3.8;96.0
22676;DHT22;12521;43.310;21.876;2023-12-22T04:00:52;3.8;96.0
22676;DHT22;12521;43.310;21.876;2023-12-22T04:05:28;3.9;96.0
22676;DHT22;12521;43.310;21.876;2023-12-22T04:10:08;3.9;96.0
22676;DHT22;12521;43.310;21.876;2023-12-22T04:14:45;4.0;96.0
22676;DHT22;12521;43.310;21.876;2023-12-22T04:19:21;4.0;96.0
22676;DHT22;12521;43.310;21.876;2023-12-22T04:23:57;4.1;96.0
22676;DHT22;12521;43.310;21.876;2023-12-22T04:28:34;4.1;96.0
22676;DHT22;12521;43.310;21.876;2023-12-22T04:33:10;4.2;96.0
22676;DHT22;12521;43.310;21.876;2023-12-22T04:37:46;4.2;96.0
22676;DHT22;12521;43.310;21.876;2023-12-22T04:42:23;4.2;96.0
22676;DHT22;12521;43.310;21.876;2023-12-22T04:46:59;4.2;96.0
22676;DHT22;12521;43.310;21.876;2023-12-22T04:51:37;4.2;96.0
22676;DHT22;12521;43.310;21.876;2023-12-22T04:56:13;4.2;96.0
22676;DHT22;12521;43.310;21.876;2023-12-22T05:00:50;4.2;96.0
22676;DHT22;12521;43.310;21.876;2023-12-22T05:05:26;4.3;96.0
22676;DHT22;12521;43.310;21.876;2023-12-22T05:10:05;4.3;96.0
22676;DHT22;12521;43.310;21.876;2023-12-22T05:14:41;4.4;96.0
22676;DHT22;12521;43.310;21.876;2023-12-22T05:19:17;4.4;96.0
22676;DHT22;12521;43.310;21.876;2023-12-22T05:23:54;4.4;96.0
22676;DHT22;12521;43.310;21.876;2023-12-22T05:28:31;4.4;96.0
22676;DHT22;12521;43.310;21.876;2023-12-22T05:33:09;4.4;96.0
22676;DHT22;12521;43.310;21.876;2023-12-22T05:37:45;4.4;96.0
22676;DHT22;12521;43.310;21.876;2023-12-22T05:42:22;4.4;96.0
22676;DHT22;12521;43.310;21.876;2023-12-22T05:46:58;4.5;96.0
22676;DHT22;12521;43.310;21.876;2023-12-22T05:51:39;4.5;96.0
22676;DHT22;12521;43.310;21.876;2023-12-22T05:56:19;4.6;96.0
22676;DHT22;12521;43.310;21.876;2023-12-22T06:00:57;4.6;96.0
22676;DHT22;12521;43.310;21.876;2023-12-22T06:05:33;4.6;96.0
22676;DHT22;12521;43.310;21.876;2023-12-22T06:10:10;4.6;96.0
22676;DHT22;12521;43.310;21.876;2023-12-22T06:14:46;4.6;96.0
22676;DHT22;12521;43.310;21.876;2023-12-22T06:19:22;4.6;96.0
22676;DHT22;12521;43.310;21.876;2023-12-22T06:23:59;4.5;96.0
22676;DHT22;12521;43.310;21.876;2023-12-22T06:28:35;4.5;96.0
22676;DHT22;12521;43.310;21.876;2023-12-22T06:33:11;4.6;96.0
22676;DHT22;12521;43.310;21.876;2023-12-22T06:37:47;4.6;96.0
22676;DHT22;12521;43.310;21.876;2023-12-22T06:42:24;4.6;96.0
22676;DHT22;12521;43.310;21.876;2023-12-22T06:47:00;4.6;96.0
22676;DHT22;12521;43.310;21.876;2023-12-22T06:51:36;4.6;96.0
22676;DHT22;12521;43.310;21.876;2023-12-22T06:56:22;4.7;96.0
22676;DHT22;12521;43.310;21.876;2023-12-22T07:01:00;4.7;96.0
22676;DHT22;12521;43.310;21.876;2023-12-22T07:05:36;4.8;96.0
22676;DHT22;12521;43.310;21.876;2023-12-22T07:10:13;4.8;96.0
22676;DHT22;12521;43.310;21.876;2023-12-22T07:14:49;4.8;96.0
22676;DHT22;12521;43.310;21.876;2023-12-22T07:19:26;4.8;96.0
22676;DHT22;12521;43.310;21.876;2023-12-22T07:24:04;4.9;96.0
22676;DHT22;12521;43.310;21.876;2023-12-22T07:28:40;4.9;96.0
22676;DHT22;12521;43.310;21.876;2023-12-22T07:33:19;5.0;96.0
22676;DHT22;12521;43.310;21.876;2023-12-22T07:37:55;5.0;96.0
22676;DHT22;12521;43.310;21.876;2023-12-22T07:42:31;5.0;96.0
22676;DHT22;12521;43.310;21.876;2023-12-22T07:47:07;5.1;96.0
22676;DHT22;12521;43.310;21.876;2023-12-22T07:51:43;5.1;96.0
22676;DHT22;12521;43.310;21.876;2023-12-22T07:56:19;5.2;96.0
22676;DHT22;12521;43.310;21.876;2023-12-22T08:00:56;5.2;96.0
22676;DHT22;12521;43.310;21.876;2023-12-22T08:05:33;5.3;96.0
22676;DHT22;12521;43.310;21.876;2023-12-22T08:10:10;5.3;96.0
22676;DHT22;12521;43.310;21.876;2023-12-22T08:14:46;5.4;96.0
22676;DHT22;12521;43.310;21.876;2023-12-22T08:19:23;5.4;96.0
22676;DHT22;12521;43.310;21.876;2023-12-22T08:23:59;5.4;96.0
22676;DHT22;12521;43.310;21.876;2023-12-22T08:28:35;5.4;96.0
22676;DHT22;12521;43.310;21.876;2023-12-22T08:33:12;5.4;96.0
22676;DHT22;12521;43.310;21.876;2023-12-22T08:37:48;5.4;96.0
22676;DHT22;12521;43.310;21.876;2023-12-22T08:42:29;5.4;96.0
22676;DHT22;12521;43.310;21.876;2023-12-22T08:47:06;5.5;96.0
22676;DHT22;12521;43.310;21.876;2023-12-22T08:51:42;5.5;96.0
22676;DHT22;12521;43.310;21.876;2023-12-22T08:56:18;5.6;96.0
22676;DHT22;12521;43.310;21.876;2023-12-22T09:00:54;5.6;96.0
22676;DHT22;12521;43.310;21.876;2023-12-22T09:05:30;5.7;96.0
22676;DHT22;12521;43.310;21.876;2023-12-22T09:10:07;5.7;96.0
22676;DHT22;12521;43.310;21.876;2023-12-22T09:14:43;5.8;96.0
22676;DHT22;12521;43.310;21.876;2023-12-22T09:19:20;5.8;96.0
22676;DHT22;12521;43.310;21.876;2023-12-22T09:23:56;6.0;96.0
22676;DHT22;12521;43.310;21.876;2023-12-22T09:28:32;6.0;96.0
22676;DHT22;12521;43.310;21.876;2023-12-22T09:33:10;6.2;96.0
22676;DHT22;12521;43.310;21.876;2023-12-22T09:37:47;6.2;96.0
22676;DHT22;12521;43.310;21.876;2023-12-22T09:42:26;6.2;96.0
22676;DHT22;12521;43.310;21.876;2023-12-22T09:47:06;6.5;96.0
22676;DHT22;12521;43.310;21.876;2023-12-22T09:51:47;6.5;96.0
22676;DHT22;12521;43.310;21.876;2023-12-22T09:56:28;6.6;96.0
22676;DHT22;12521;43.310;21.876;2023-12-22T10:01:07;6.6;96.0
22676;DHT22;12521;43.310;21.876;2023-12-22T10:05:46;6.8;96.0
22676;DHT22;12521;43.310;21.876;2023-12-22T10:10:27;6.8;96.0
22676;DHT22;12521;43.310;21.876;2023-12-22T10:15:12;6.8;96.0
22676;DHT22;12521;43.310;21.876;2023-12-22T10:19:48;6.8;96.0
22676;DHT22;12521;43.310;21.876;2023-12-22T10:24:45;6.9;96.0
22676;DHT22;12521;43.310;21.876;2023-12-22T10:29:21;6.9;96.0
22676;DHT22;12521;43.310;21.876;2023-12-22T10:33:57;7.0;96.0
22676;DHT22;12521;43.310;21.876;2023-12-22T10:38:34;7.0;96.0
22676;DHT22;12521;43.310;21.876;2023-12-22T10:43:11;7.1;96.0
22676;DHT22;12521;43.310;21.876;2023-12-22T10:47:49;7.1;96.0
22676;DHT22;12521;43.310;21.876;2023-12-22T10:52:25;7.1;96.0
22676;DHT22;12521;43.310;21.876;2023-12-22T10:57:03;7.1;96.0
22676;DHT22;12521;43.310;21.876;2023-12-22T11:01:41;7.1;96.0
22676;DHT22;12521;43.310;21.876;2023-12-22T11:06:21;7.1;96.0
22676;DHT22;12521;43.310;21.876;2023-12-22T11:11:26;7.1;96.0
22676;DHT22;12521;43.310;21.876;2023-12-22T11:16:12;7.1;96.0
22676;DHT22;12521;43.310;21.876;2023-12-22T11:20:54;7.1;96.0
22676;DHT22;12521;43.310;21.876;2023-12-22T11:25:37;7.1;96.0
22676;DHT22;12521;43.310;21.876;2023-12-22T11:30:21;7.1;96.0
22676;DHT22;12521;43.310;21.876;2023-12-22T11:35:00;7.2;96.0
22676;DHT22;12521;43.310;21.876;2023-12-22T11:39:45;7.2;96.0
22676;DHT22;12521;43.310;21.876;2023-12-22T11:44:23;7.3;96.0
22676;DHT22;12521;43.310;21.876;2023-12-22T11:49:01;7.3;96.0
22676;DHT22;12521;43.310;21.876;2023-12-22T11:53:37;7.5;96.0
22676;DHT22;12521;43.310;21.876;2023-12-22T11:58:48;7.5;96.0
22676;DHT22;12521;43.310;21.876;2023-12-22T12:03:27;7.7;96.0
22676;DHT22;12521;43.310;21.876;2023-12-22T12:08:08;7.7;96.0
22676;DHT22;12521;43.310;21.876;2023-12-22T12:12:44;7.7;96.0
22676;DHT22;12521;43.310;21.876;2023-12-22T12:17:21;7.8;96.0
22676;DHT22;12521;43.310;21.876;2023-12-22T12:21:57;7.8;96.0
22676;DHT22;12521;43.310;21.876;2023-12-22T12:26:34;7.8;96.0
22676;DHT22;12521;43.310;21.876;2023-12-22T12:31:11;7.8;96.0
22676;DHT22;12521;43.310;21.876;2023-12-22T12:35:49;7.8;96.0
22676;DHT22;12521;43.310;21.876;2023-12-22T12:40:29;7.8;96.0
22676;DHT22;12521;43.310;21.876;2023-12-22T12:45:09;7.8;96.0
22676;DHT22;12521;43.310;21.876;2023-12-22T12:49:45;7.8;96.0
22676;DHT22;12521;43.310;21.876;2023-12-22T12:54:22;7.8;96.0
22676;DHT22;12521;43.310;21.876;2023-12-22T12:58:58;7.8;96.0
22676;DHT22;12521;43.310;21.876;2023-12-22T13:03:54;7.8;96.0
22676;DHT22;12521;43.310;21.876;2023-12-22T13:08:30;7.8;96.0
22676;DHT22;12521;43.310;21.876;2023-12-22T13:13:07;7.8;96.0
22676;DHT22;12521;43.310;21.876;2023-12-22T13:17:46;7.8;96.0
22676;DHT22;12521;43.310;21.876;2023-12-22T13:22:23;7.8;96.0
22676;DHT22;12521;43.310;21.876;2023-12-22T13:27:04;7.8;96.0
22676;DHT22;12521;43.310;21.876;2023-12-22T13:31:42;7.8;96.0
22676;DHT22;12521;43.310;21.876;2023-12-22T13:36:20;7.8;96.0
22676;DHT22;12521;43.310;21.876;2023-12-22T13:40:58;7.8;96.0
22676;DHT22;12521;43.310;21.876;2023-12-22T13:45:35;7.7;96.0
22676;DHT22;12521;43.310;21.876;2023-12-22T13:50:16;7.7;96.0
22676;DHT22;12521;43.310;21.876;2023-12-22T13:54:53;7.6;96.0
22676;DHT22;12521;43.310;21.876;2023-12-22T13:59:32;7.6;96.0
22676;DHT22;12521;43.310;21.876;2023-12-22T14:04:09;7.6;96.0
22676;DHT22;12521;43.310;21.876;2023-12-22T14:08:46;7.6;96.0
22676;DHT22;12521;43.310;21.876;2023-12-22T14:13:22;7.6;96.0
22676;DHT22;12521;43.310;21.876;2023-12-22T14:17:58;7.6;96.0
22676;DHT22;12521;43.310;21.876;2023-12-22T14:22:34;7.6;96.0
22676;DHT22;12521;43.310;21.876;2023-12-22T14:27:10;7.5;96.0
22676;DHT22;12521;43.310;21.876;2023-12-22T14:31:46;7.5;96.0
22676;DHT22;12521;43.310;21.876;2023-12-22T14:36:22;7.4;96.0
22676;DHT22;12521;43.310;21.876;2023-12-22T14:40:58;7.4;96.0
22676;DHT22;12521;43.310;21.876;2023-12-22T14:45:34;7.3;96.0
22676;DHT22;12521;43.310;21.876;2023-12-22T14:50:11;7.3;96.0
22676;DHT22;12521;43.310;21.876;2023-12-22T14:54:47;7.2;96.0
22676;DHT22;12521;43.310;21.876;2023-12-22T14:59:23;7.2;96.0
22676;DHT22;12521;43.310;21.876;2023-12-22T15:04:00;7.2;96.0
22676;DHT22;12521;43.310;21.876;2023-12-22T15:08:36;7.2;96.0
22676;DHT22;12521;43.310;21.876;2023-12-22T15:13:12;7.2;96.0
22676;DHT22;12521;43.310;21.876;2023-12-22T15:17:50;7.0;96.0
22676;DHT22;12521;43.310;21.876;2023-12-22T15:22:27;7.0;96.0
22676;DHT22;12521;43.310;21.876;2023-12-22T15:27:05;6.8;96.0
22676;DHT22;12521;43.310;21.876;2023-12-22T15:31:41;6.8;96.0
22676;DHT22;12521;43.310;21.876;2023-12-22T15:36:19;6.6;96.0
22676;DHT22;12521;43.310;21.876;2023-12-22T15:40:59;6.6;96.0
22676;DHT22;12521;43.310;21.876;2023-12-22T15:45:36;6.4;96.0
22676;DHT22;12521;43.310;21.876;2023-12-22T15:50:12;6.4;96.0
22676;DHT22;12521;43.310;21.876;2023-12-22T15:54:48;6.2;96.0
22676;DHT22;12521;43.310;21.876;2023-12-22T15:59:24;6.2;96.0
22676;DHT22;12521;43.310;21.876;2023-12-22T16:04:01;6.1;96.0
22676;DHT22;12521;43.310;21.876;2023-12-22T16:08:37;6.1;96.0
22676;DHT22;12521;43.310;21.876;2023-12-22T16:13:14;6.1;96.0
22676;DHT22;12521;43.310;21.876;2023-12-22T16:17:50;6.0;96.0
22676;DHT22;12521;43.310;21.876;2023-12-22T16:22:27;6.0;96.0
22676;DHT22;12521;43.310;21.876;2023-12-22T16:27:04;6.0;96.0
22676;DHT22;12521;43.310;21.876;2023-12-22T16:31:41;6.0;96.0
22676;DHT22;12521;43.310;21.876;2023-12-22T16:36:18;6.0;96.0
22676;DHT22;12521;43.310;21.876;2023-12-22T16:40:54;6.0;96.0
22676;DHT22;12521;43.310;21.876;2023-12-22T16:45:31;6.0;96.0
22676;DHT22;12521;43.310;21.876;2023-12-22T16:50:08;6.0;96.0
22676;DHT22;12521;43.310;21.876;2023-12-22T16:54:44;6.0;96.0
22676;DHT22;12521;43.310;21.876;2023-12-22T16:59:21;6.0;96.0
22676;DHT22;12521;43.310;21.876;2023-12-22T17:03:57;6.0;96.0
22676;DHT22;12521;43.310;21.876;2023-12-22T17:08:33;6.0;96.0
22676;DHT22;12521;43.310;21.876;2023-12-22T17:13:09;6.0;96.0
22676;DHT22;12521;43.310;21.876;2023-12-22T17:17:45;6.0;96.0
22676;DHT22;12521;43.310;21.876;2023-12-22T17:22:22;6.0;96.0
22676;DHT22;12521;43.310;21.876;2023-12-22T17:26:58;6.1;96.0
22676;DHT22;12521;43.310;21.876;2023-12-22T17:31:35;6.1;96.0
22676;DHT22;12521;43.310;21.876;2023-12-22T17:36:11;6.1;96.0
22676;DHT22;12521;43.310;21.876;2023-12-22T17:40:47;6.1;96.0
22676;DHT22;12521;43.310;21.876;2023-12-22T17:45:24;6.1;96.0
22676;DHT22;12521;43.310;21.876;2023-12-22T17:50:01;6.1;96.0
22676;DHT22;12521;43.310;21.876;2023-12-22T17:54:37;6.0;96.0
22676;DHT22;12521;43.310;21.876;2023-12-22T17:59:13;6.0;96.0
22676;DHT22;12521;43.310;21.876;2023-12-22T18:03:50;6.0;96.0
22676;DHT22;12521;43.310;21.876;2023-12-22T18:08:26;6.0;96.0
22676;DHT22;12521;43.310;21.876;2023-12-22T18:13:02;6.0;96.0
22676;DHT22;12521;43.310;21.876;2023-12-22T18:17:38;6.0;96.0
22676;DHT22;12521;43.310;21.876;2023-12-22T18:22:14;6.0;96.0
22676;DHT22;12521;43.310;21.876;2023-12-22T18:26:50;5.9;96.0
22676;DHT22;12521;43.310;21.876;2023-12-22T18:31:26;5.9;96.0
22676;DHT22;12521;43.310;21.876;2023-12-22T18:36:04;5.8;96.0
22676;DHT22;12521;43.310;21.876;2023-12-22T18:40:41;5.8;96.0
22676;DHT22;12521;43.310;21.876;2023-12-22T18:45:18;5.8;96.0
22676;DHT22;12521;43.310;21.876;2023-12-22T18:49:54;5.8;96.0
22676;DHT22;12521;43.310;21.876;2023-12-22T18:54:30;5.7;96.0
22676;DHT22;12521;43.310;21.876;2023-12-22T18:59:06;5.7;96.0
22676;DHT22;12521;43.310;21.876;2023-12-22T19:03:43;5.6;96.0
22676;DHT22;12521;43.310;21.876;2023-12-22T19:08:19;5.6;96.0
22676;DHT22;12521;43.310;21.876;2023-12-22T19:12:55;5.6;96.0
22676;DHT22;12521;43.310;21.876;2023-12-22T19:17:32;5.5;96.0
22676;DHT22;12521;43.310;21.876;2023-12-22T19:22:08;5.5;96.0
22676;DHT22;12521;43.310;21.876;2023-12-22T19:26:44;5.4;96.0
22676;DHT22;12521;43.310;21.876;2023-12-22T19:31:21;5.4;96.0
22676;DHT22;12521;43.310;21.876;2023-12-22T19:35:57;5.2;96.0
22676;DHT22;12521;43.310;21.876;2023-12-22T19:40:33;5.2;96.0
22676;DHT22;12521;43.310;21.876;2023-12-22T19:45:10;5.1;96.0
22676;DHT22;12521;43.310;21.876;2023-12-22T19:49:46;5.1;96.0
22676;DHT22;12521;43.310;21.876;2023-12-22T19:54:22;5.0;96.0
22676;DHT22;12521;43.310;21.876;2023-12-22T19:58:58;5.0;96.0
22676;DHT22;12521;43.310;21.876;2023-12-22T20:03:34;5.0;96.0
22676;DHT22;12521;43.310;21.876;2023-12-22T20:08:11;5.0;96.0
22676;DHT22;12521;43.310;21.876;2023-12-22T20:12:47;5.0;96.0
22676;DHT22;12521;43.310;21.876;2023-12-22T20:17:23;5.0;96.0
22676;DHT22;12521;43.310;21.876;2023-12-22T20:22:00;5.0;96.0
22676;DHT22;12521;43.310;21.876;2023-12-22T20:26:36;5.0;96.0
22676;DHT22;12521;43.310;21.876;2023-12-22T20:31:12;5.0;96.0
22676;DHT22;12521;43.310;21.876;2023-12-22T20:35:49;5.0;96.0
22676;DHT22;12521;43.310;21.876;2023-12-22T20:40:25;5.0;96.0
22676;DHT22;12521;43.310;21.876;2023-12-22T20:45:02;5.0;96.0
22676;DHT22;12521;43.310;21.876;2023-12-22T20:49:39;5.0;96.0
22676;DHT22;12521;43.310;21.876;2023-12-22T20:54:16;5.0;96.0
22676;DHT22;12521;43.310;21.876;2023-12-22T20:58:52;5.0;96.0
22676;DHT22;12521;43.310;21.876;2023-12-22T21:03:28;5.0;96.0
22676;DHT22;12521;43.310;21.876;2023-12-22T21:08:06;5.1;96.0
22676;DHT22;12521;43.310;21.876;2023-12-22T21:12:42;5.1;96.0
22676;DHT22;12521;43.310;21.876;2023-12-22T21:17:19;5.2;96.0
22676;DHT22;12521;43.310;21.876;2023-12-22T21:21:55;5.2;96.0
22676;DHT22;12521;43.310;21.876;2023-12-22T21:26:31;5.2;96.0
22676;DHT22;12521;43.310;21.876;2023-12-22T21:31:07;5.2;96.0
22676;DHT22;12521;43.310;21.876;2023-12-22T21:35:44;5.2;96.0
22676;DHT22;12521;43.310;21.876;2023-12-22T21:40:20;5.2;96.0
22676;DHT22;12521;43.310;21.876;2023-12-22T21:44:56;5.2;96.0
22676;DHT22;12521;43.310;21.876;2023-12-22T21:49:33;5.2;96.0
22676;DHT22;12521;43.310;21.876;2023-12-22T21:54:10;5.2;96.0
22676;DHT22;12521;43.310;21.876;2023-12-22T21:58:46;5.2;96.0
22676;DHT22;12521;43.310;21.876;2023-12-22T22:03:23;5.2;96.0
22676;DHT22;12521;43.310;21.876;2023-12-22T22:07:59;5.3;96.0
22676;DHT22;12521;43.310;21.876;2023-12-22T22:12:35;5.3;96.0
22676;DHT22;12521;43.310;21.876;2023-12-22T22:17:10;5.4;96.0
22676;DHT22;12521;43.310;21.876;2023-12-22T22:21:46;5.4;96.0
22676;DHT22;12521;43.310;21.876;2023-12-22T22:26:22;5.4;96.0
22676;DHT22;12521;43.310;21.876;2023-12-22T22:30:59;5.4;96.0
22676;DHT22;12521;43.310;21.876;2023-12-22T22:35:35;5.4;96.0
22676;DHT22;12521;43.310;21.876;2023-12-22T22:40:11;5.4;96.0
22676;DHT22;12521;43.310;21.876;2023-12-22T22:44:48;5.3;96.0
22676;DHT22;12521;43.310;21.876;2023-12-22T22:49:24;5.3;96.0
22676;DHT22;12521;43.310;21.876;2023-12-22T22:54:01;5.2;96.0
22676;DHT22;12521;43.310;21.876;2023-12-22T22:58:37;5.2;96.0
22676;DHT22;12521;43.310;21.876;2023-12-22T23:03:13;5.2;96.0
22676;DHT22;12521;43.310;21.876;2023-12-22T23:07:50;5.2;96.0
22676;DHT22;12521;43.310;21.876;2023-12-22T23:12:26;5.2;96.0
22676;DHT22;12521;43.310;21.876;2023-12-22T23:17:03;5.2;96.0
22676;DHT22;12521;43.310;21.876;2023-12-22T23:21:39;5.2;96.0
22676;DHT22;12521;43.310;21.876;2023-12-22T23:26:16;5.1;96.0
22676;DHT22;12521;43.310;21.876;2023-12-22T23:30:52;5.1;96.0
22676;DHT22;12521;43.310;21.876;2023-12-22T23:35:28;5.1;96.0
22676;DHT22;12521;43.310;21.876;2023-12-22T23:40:05;5.1;96.0
22676;DHT22;12521;43.310;21.876;2023-12-22T23:44:43;5.1;96.0
22676;DHT22;12521;43.310;21.876;2023-12-22T23:49:19;5.1;96.0
22676;DHT22;12521;43.310;21.876;2023-12-22T23:53:55;5.0;96.0
22676;DHT22;12521;43.310;21.876;2023-12-22T23:58:32;5.0;96.0
